sensor_id;sensor_type;location;lat;lon;timestamp;temperature;humidity
71177;DHT22;58877;51.992;4.504;2022-09-09T00:02:19;17.18;80.78
71177;DHT22;58877;51.992;4.504;2022-09-09T00:05:17;17.15;81.02
71177;DHT22;58877;51.992;4.504;2022-09-09T00:07:49;17.13;81.11
71177;DHT22;58877;51.992;4.504;2022-09-09T00:15:25;17.20;81.13
71177;DHT22;58877;51.992;4.504;2022-09-09T00:20:58;17.12;81.59
71177;DHT22;58877;51.992;4.504;2022-09-09T00:23:31;17.12;81.76
71177;DHT22;58877;51.992;4.504;2022-09-09T00:26:48;17.05;81.93
71177;DHT22;58877;51.992;4.504;2022-09-09T00:28:57;17.08;81.86
71177;DHT22;58877;51.992;4.504;2022-09-09T00:31:28;17.05;81.94
71177;DHT22;58877;51.992;4.504;2022-09-09T00:34:02;17.00;82.07
71177;DHT22;58877;51.992;4.504;2022-09-09T00:36:32;17.02;82.05
71177;DHT22;58877;51.992;4.504;2022-09-09T00:39:01;17.02;82.00
71177;DHT22;58877;51.992;4.504;2022-09-09T00:44:31;16.95;82.35
71177;DHT22;58877;51.992;4.504;2022-09-09T00:52:44;16.90;82.47
71177;DHT22;58877;51.992;4.504;2022-09-09T00:55:39;16.88;82.51
71177;DHT22;58877;51.992;4.504;2022-09-09T00:58:09;16.82;82.72
71177;DHT22;58877;51.992;4.504;2022-09-09T01:00:46;16.83;82.77
71177;DHT22;58877;51.992;4.504;2022-09-09T01:03:48;16.80;82.97
71177;DHT22;58877;51.992;4.504;2022-09-09T01:06:25;16.82;82.74
71177;DHT22;58877;51.992;4.504;2022-09-09T01:14:29;16.83;82.90
71177;DHT22;58877;51.992;4.504;2022-09-09T01:17:03;16.82;82.78
71177;DHT22;58877;51.992;4.504;2022-09-09T01:19:49;16.83;83.12
71177;DHT22;58877;51.992;4.504;2022-09-09T01:22:36;16.83;83.17
71177;DHT22;58877;51.992;4.504;2022-09-09T01:28:01;16.89;83.01
71177;DHT22;58877;51.992;4.504;2022-09-09T01:30:28;16.90;82.93
71177;DHT22;58877;51.992;4.504;2022-09-09T01:32:56;16.90;82.80
71177;DHT22;58877;51.992;4.504;2022-09-09T01:35:48;16.89;82.92
71177;DHT22;58877;51.992;4.504;2022-09-09T01:38:19;16.89;82.68
71177;DHT22;58877;51.992;4.504;2022-09-09T01:40:44;16.86;82.69
71177;DHT22;58877;51.992;4.504;2022-09-09T01:43:10;16.88;82.69
71177;DHT22;58877;51.992;4.504;2022-09-09T01:45:39;16.83;82.58
71177;DHT22;58877;51.992;4.504;2022-09-09T01:48:06;16.78;82.80
71177;DHT22;58877;51.992;4.504;2022-09-09T01:50:31;16.78;82.88
71177;DHT22;58877;51.992;4.504;2022-09-09T01:52:59;16.72;82.90
71177;DHT22;58877;51.992;4.504;2022-09-09T01:55:33;16.72;83.05
71177;DHT22;58877;51.992;4.504;2022-09-09T02:00:45;16.69;83.05
71177;DHT22;58877;51.992;4.504;2022-09-09T02:03:28;16.66;83.03
71177;DHT22;58877;51.992;4.504;2022-09-09T02:06:12;16.56;83.20
71177;DHT22;58877;51.992;4.504;2022-09-09T02:08:50;16.54;83.34
71177;DHT22;58877;51.992;4.504;2022-09-09T02:11:23;16.56;83.27
71177;DHT22;58877;51.992;4.504;2022-09-09T02:13:53;16.55;83.14
71177;DHT22;58877;51.992;4.504;2022-09-09T02:17:09;16.55;83.19
71177;DHT22;58877;51.992;4.504;2022-09-09T02:19:25;16.52;83.07
71177;DHT22;58877;51.992;4.504;2022-09-09T02:21:55;16.51;83.14
71177;DHT22;58877;51.992;4.504;2022-09-09T02:24:28;16.49;83.09
71177;DHT22;58877;51.992;4.504;2022-09-09T02:26:57;16.49;83.06
71177;DHT22;58877;51.992;4.504;2022-09-09T02:29:31;16.51;82.98
71177;DHT22;58877;51.992;4.504;2022-09-09T02:32:03;16.52;82.92
71177;DHT22;58877;51.992;4.504;2022-09-09T02:34:34;16.54;82.91
71177;DHT22;58877;51.992;4.504;2022-09-09T02:37:03;16.48;82.73
71177;DHT22;58877;51.992;4.504;2022-09-09T02:39:31;16.52;82.74
71177;DHT22;58877;51.992;4.504;2022-09-09T02:41:57;16.47;82.64
71177;DHT22;58877;51.992;4.504;2022-09-09T02:44:22;16.49;82.63
71177;DHT22;58877;51.992;4.504;2022-09-09T02:52:39;16.47;82.40
71177;DHT22;58877;51.992;4.504;2022-09-09T02:55:17;16.51;82.32
71177;DHT22;58877;51.992;4.504;2022-09-09T02:57:48;16.56;82.25
71177;DHT22;58877;51.992;4.504;2022-09-09T03:00:14;16.58;81.97
71177;DHT22;58877;51.992;4.504;2022-09-09T03:02:40;16.59;81.82
71177;DHT22;58877;51.992;4.504;2022-09-09T03:05:07;16.58;81.71
71177;DHT22;58877;51.992;4.504;2022-09-09T03:07:33;16.66;81.37
71177;DHT22;58877;51.992;4.504;2022-09-09T03:09:58;16.55;81.24
71177;DHT22;58877;51.992;4.504;2022-09-09T03:12:24;16.65;81.16
71177;DHT22;58877;51.992;4.504;2022-09-09T03:14:49;16.62;80.81
71177;DHT22;58877;51.992;4.504;2022-09-09T03:17:15;16.68;80.75
71177;DHT22;58877;51.992;4.504;2022-09-09T03:19:40;16.66;80.68
71177;DHT22;58877;51.992;4.504;2022-09-09T03:22:06;16.71;80.57
71177;DHT22;58877;51.992;4.504;2022-09-09T03:24:32;16.65;80.63
71177;DHT22;58877;51.992;4.504;2022-09-09T03:26:58;16.68;80.71
71177;DHT22;58877;51.992;4.504;2022-09-09T03:29:23;16.68;80.47
71177;DHT22;58877;51.992;4.504;2022-09-09T03:31:49;16.71;80.50
71177;DHT22;58877;51.992;4.504;2022-09-09T03:34:16;16.71;80.50
71177;DHT22;58877;51.992;4.504;2022-09-09T03:36:42;16.71;80.49
71177;DHT22;58877;51.992;4.504;2022-09-09T03:39:09;16.69;80.57
71177;DHT22;58877;51.992;4.504;2022-09-09T03:41:35;16.65;80.73
71177;DHT22;58877;51.992;4.504;2022-09-09T03:44:02;16.65;80.75
71177;DHT22;58877;51.992;4.504;2022-09-09T03:46:28;16.66;80.74
71177;DHT22;58877;51.992;4.504;2022-09-09T03:48:53;16.68;80.69
71177;DHT22;58877;51.992;4.504;2022-09-09T03:51:19;16.71;80.58
71177;DHT22;58877;51.992;4.504;2022-09-09T03:53:44;16.69;80.50
71177;DHT22;58877;51.992;4.504;2022-09-09T03:56:10;16.69;80.59
71177;DHT22;58877;51.992;4.504;2022-09-09T03:58:37;16.66;80.71
71177;DHT22;58877;51.992;4.504;2022-09-09T04:01:05;16.71;80.42
71177;DHT22;58877;51.992;4.504;2022-09-09T04:03:32;16.71;80.42
71177;DHT22;58877;51.992;4.504;2022-09-09T04:05:59;16.66;80.38
71177;DHT22;58877;51.992;4.504;2022-09-09T04:08:25;16.66;80.56
71177;DHT22;58877;51.992;4.504;2022-09-09T04:10:52;16.62;80.52
71177;DHT22;58877;51.992;4.504;2022-09-09T04:13:18;16.64;80.51
71177;DHT22;58877;51.992;4.504;2022-09-09T04:15:54;16.61;80.46
71177;DHT22;58877;51.992;4.504;2022-09-09T04:18:21;16.61;80.56
71177;DHT22;58877;51.992;4.504;2022-09-09T04:20:47;16.61;80.60
71177;DHT22;58877;51.992;4.504;2022-09-09T04:23:13;16.58;80.58
71177;DHT22;58877;51.992;4.504;2022-09-09T04:25:44;16.54;80.76
71177;DHT22;58877;51.992;4.504;2022-09-09T04:28:10;16.51;80.94
71177;DHT22;58877;51.992;4.504;2022-09-09T04:30:35;16.49;80.88
71177;DHT22;58877;51.992;4.504;2022-09-09T04:33:01;16.51;80.94
71177;DHT22;58877;51.992;4.504;2022-09-09T04:35:26;16.47;81.01
71177;DHT22;58877;51.992;4.504;2022-09-09T04:37:52;16.40;81.28
71177;DHT22;58877;51.992;4.504;2022-09-09T04:40:18;16.40;81.43
71177;DHT22;58877;51.992;4.504;2022-09-09T04:42:43;16.32;81.50
71177;DHT22;58877;51.992;4.504;2022-09-09T04:45:09;16.34;81.54
71177;DHT22;58877;51.992;4.504;2022-09-09T04:47:36;16.31;81.65
71177;DHT22;58877;51.992;4.504;2022-09-09T04:50:02;16.27;81.77
71177;DHT22;58877;51.992;4.504;2022-09-09T04:52:28;16.27;81.99
71177;DHT22;58877;51.992;4.504;2022-09-09T04:54:53;16.25;82.01
71177;DHT22;58877;51.992;4.504;2022-09-09T04:57:19;16.18;82.18
71177;DHT22;58877;51.992;4.504;2022-09-09T04:59:45;16.17;82.21
71177;DHT22;58877;51.992;4.504;2022-09-09T05:02:11;16.03;82.62
71177;DHT22;58877;51.992;4.504;2022-09-09T05:04:36;16.04;82.79
71177;DHT22;58877;51.992;4.504;2022-09-09T05:07:02;16.05;82.91
71177;DHT22;58877;51.992;4.504;2022-09-09T05:09:27;15.98;83.14
71177;DHT22;58877;51.992;4.504;2022-09-09T05:11:53;16.01;83.08
71177;DHT22;58877;51.992;4.504;2022-09-09T05:14:18;16.05;83.13
71177;DHT22;58877;51.992;4.504;2022-09-09T05:16:44;16.08;82.98
71177;DHT22;58877;51.992;4.504;2022-09-09T05:19:10;16.03;83.10
71177;DHT22;58877;51.992;4.504;2022-09-09T05:21:36;16.04;83.07
71177;DHT22;58877;51.992;4.504;2022-09-09T05:24:02;16.08;83.06
71177;DHT22;58877;51.992;4.504;2022-09-09T05:26:28;16.10;83.02
71177;DHT22;58877;51.992;4.504;2022-09-09T05:28:55;16.15;82.92
71177;DHT22;58877;51.992;4.504;2022-09-09T05:31:21;16.22;82.88
71177;DHT22;58877;51.992;4.504;2022-09-09T05:33:49;16.29;82.73
71177;DHT22;58877;51.992;4.504;2022-09-09T05:36:18;16.34;82.46
71177;DHT22;58877;51.992;4.504;2022-09-09T05:38:44;16.40;82.42
71177;DHT22;58877;51.992;4.504;2022-09-09T05:41:11;16.47;82.21
71177;DHT22;58877;51.992;4.504;2022-09-09T05:43:37;16.55;81.81
71177;DHT22;58877;51.992;4.504;2022-09-09T05:46:08;16.52;81.82
71177;DHT22;58877;51.992;4.504;2022-09-09T05:48:37;16.59;81.81
71177;DHT22;58877;51.992;4.504;2022-09-09T05:51:21;16.65;81.46
71177;DHT22;58877;51.992;4.504;2022-09-09T05:53:48;16.72;81.36
71177;DHT22;58877;51.992;4.504;2022-09-09T05:56:16;16.78;81.03
71177;DHT22;58877;51.992;4.504;2022-09-09T05:58:48;16.80;80.82
71177;DHT22;58877;51.992;4.504;2022-09-09T06:01:20;16.86;80.73
71177;DHT22;58877;51.992;4.504;2022-09-09T06:03:47;16.95;80.48
71177;DHT22;58877;51.992;4.504;2022-09-09T06:06:19;17.05;80.13
71177;DHT22;58877;51.992;4.504;2022-09-09T06:08:50;17.03;80.15
71177;DHT22;58877;51.992;4.504;2022-09-09T06:11:20;17.09;80.02
71177;DHT22;58877;51.992;4.504;2022-09-09T06:13:47;17.13;79.68
71177;DHT22;58877;51.992;4.504;2022-09-09T06:16:16;17.20;79.40
71177;DHT22;58877;51.992;4.504;2022-09-09T06:18:42;17.16;79.56
71177;DHT22;58877;51.992;4.504;2022-09-09T06:21:28;17.20;79.37
71177;DHT22;58877;51.992;4.504;2022-09-09T06:23:56;17.32;79.16
71177;DHT22;58877;51.992;4.504;2022-09-09T06:26:27;17.44;78.89
71177;DHT22;58877;51.992;4.504;2022-09-09T06:28:54;17.46;78.48
71177;DHT22;58877;51.992;4.504;2022-09-09T06:31:23;17.39;78.67
71177;DHT22;58877;51.992;4.504;2022-09-09T06:33:51;17.39;78.81
71177;DHT22;58877;51.992;4.504;2022-09-09T06:36:19;17.40;78.91
71177;DHT22;58877;51.992;4.504;2022-09-09T06:38:46;17.34;78.75
71177;DHT22;58877;51.992;4.504;2022-09-09T06:41:15;17.43;78.84
71177;DHT22;58877;51.992;4.504;2022-09-09T06:43:41;17.40;78.66
71177;DHT22;58877;51.992;4.504;2022-09-09T06:48:42;17.47;78.68
71177;DHT22;58877;51.992;4.504;2022-09-09T06:51:20;17.50;78.60
71177;DHT22;58877;51.992;4.504;2022-09-09T06:53:54;17.57;78.57
71177;DHT22;58877;51.992;4.504;2022-09-09T06:58:47;17.62;78.21
71177;DHT22;58877;51.992;4.504;2022-09-09T07:01:23;17.66;78.23
71177;DHT22;58877;51.992;4.504;2022-09-09T07:03:51;17.66;78.03
71177;DHT22;58877;51.992;4.504;2022-09-09T07:06:29;17.71;78.17
71177;DHT22;58877;51.992;4.504;2022-09-09T07:09:00;17.77;77.97
71177;DHT22;58877;51.992;4.504;2022-09-09T07:11:28;17.75;77.92
71177;DHT22;58877;51.992;4.504;2022-09-09T07:13:56;17.77;77.73
71177;DHT22;58877;51.992;4.504;2022-09-09T07:16:22;17.66;78.04
71177;DHT22;58877;51.992;4.504;2022-09-09T07:18:53;17.71;78.13
71177;DHT22;58877;51.992;4.504;2022-09-09T07:21:24;17.70;77.87
71177;DHT22;58877;51.992;4.504;2022-09-09T07:23:58;17.63;78.13
71177;DHT22;58877;51.992;4.504;2022-09-09T07:26:30;17.59;78.23
71177;DHT22;58877;51.992;4.504;2022-09-09T07:29:01;17.67;78.16
71177;DHT22;58877;51.992;4.504;2022-09-09T07:31:30;17.63;78.06
71177;DHT22;58877;51.992;4.504;2022-09-09T07:33:56;17.57;78.28
71177;DHT22;58877;51.992;4.504;2022-09-09T07:36:28;17.50;78.56
71177;DHT22;58877;51.992;4.504;2022-09-09T07:39:08;17.54;78.67
71177;DHT22;58877;51.992;4.504;2022-09-09T07:41:43;17.55;78.43
71177;DHT22;58877;51.992;4.504;2022-09-09T07:44:12;17.47;78.75
71177;DHT22;58877;51.992;4.504;2022-09-09T07:46:39;17.51;78.92
71177;DHT22;58877;51.992;4.504;2022-09-09T07:49:09;17.54;78.75
71177;DHT22;58877;51.992;4.504;2022-09-09T07:51:37;17.57;78.84
71177;DHT22;58877;51.992;4.504;2022-09-09T07:54:09;17.67;78.69
71177;DHT22;58877;51.992;4.504;2022-09-09T07:56:35;17.70;78.44
71177;DHT22;58877;51.992;4.504;2022-09-09T07:59:02;17.73;78.44
71177;DHT22;58877;51.992;4.504;2022-09-09T08:01:39;17.84;78.32
71177;DHT22;58877;51.992;4.504;2022-09-09T08:04:16;17.97;77.67
71177;DHT22;58877;51.992;4.504;2022-09-09T08:06:48;18.00;77.42
71177;DHT22;58877;51.992;4.504;2022-09-09T08:09:14;17.95;77.37
71177;DHT22;58877;51.992;4.504;2022-09-09T08:11:41;17.95;77.48
71177;DHT22;58877;51.992;4.504;2022-09-09T08:14:09;17.85;77.81
71177;DHT22;58877;51.992;4.504;2022-09-09T08:16:41;17.88;78.07
71177;DHT22;58877;51.992;4.504;2022-09-09T08:19:08;17.85;78.03
71177;DHT22;58877;51.992;4.504;2022-09-09T08:21:36;17.81;78.09
71177;DHT22;58877;51.992;4.504;2022-09-09T08:24:06;17.80;78.10
71177;DHT22;58877;51.992;4.504;2022-09-09T08:26:38;17.84;78.13
71177;DHT22;58877;51.992;4.504;2022-09-09T08:29:05;17.90;77.83
71177;DHT22;58877;51.992;4.504;2022-09-09T08:31:44;17.88;77.84
71177;DHT22;58877;51.992;4.504;2022-09-09T08:34:11;17.85;77.92
71177;DHT22;58877;51.992;4.504;2022-09-09T08:36:40;17.90;78.03
71177;DHT22;58877;51.992;4.504;2022-09-09T08:39:09;17.90;77.64
71177;DHT22;58877;51.992;4.504;2022-09-09T08:47:47;17.97;77.58
71177;DHT22;58877;51.992;4.504;2022-09-09T08:50:26;18.01;77.28
71177;DHT22;58877;51.992;4.504;2022-09-09T08:55:50;18.00;77.35
71177;DHT22;58877;51.992;4.504;2022-09-09T08:58:22;17.88;77.76
71177;DHT22;58877;51.992;4.504;2022-09-09T09:11:53;17.91;78.37
71177;DHT22;58877;51.992;4.504;2022-09-09T09:14:23;17.94;78.48
71177;DHT22;58877;51.992;4.504;2022-09-09T09:16:58;17.98;78.28
71177;DHT22;58877;51.992;4.504;2022-09-09T09:19:26;17.97;78.01
71177;DHT22;58877;51.992;4.504;2022-09-09T09:27:00;18.04;78.28
71177;DHT22;58877;51.992;4.504;2022-09-09T09:29:33;18.07;78.46
71177;DHT22;58877;51.992;4.504;2022-09-09T09:32:03;18.17;78.92
71177;DHT22;58877;51.992;4.504;2022-09-09T09:34:29;18.22;79.04
71177;DHT22;58877;51.992;4.504;2022-09-09T09:36:59;18.34;79.32
71177;DHT22;58877;51.992;4.504;2022-09-09T09:39:33;18.42;79.16
71177;DHT22;58877;51.992;4.504;2022-09-09T09:42:11;18.41;79.59
71177;DHT22;58877;51.992;4.504;2022-09-09T09:44:40;18.45;79.25
71177;DHT22;58877;51.992;4.504;2022-09-09T09:47:21;18.55;78.93
71177;DHT22;58877;51.992;4.504;2022-09-09T09:49:53;18.72;78.93
71177;DHT22;58877;51.992;4.504;2022-09-09T09:52:27;18.98;78.02
71177;DHT22;58877;51.992;4.504;2022-09-09T09:54:56;19.14;77.24
71177;DHT22;58877;51.992;4.504;2022-09-09T09:57:30;19.27;76.93
71177;DHT22;58877;51.992;4.504;2022-09-09T10:02:39;19.37;76.18
71177;DHT22;58877;51.992;4.504;2022-09-09T10:07:37;18.95;77.80
71177;DHT22;58877;51.992;4.504;2022-09-09T10:10:05;18.96;78.44
71177;DHT22;58877;51.992;4.504;2022-09-09T10:12:55;18.83;78.87
71177;DHT22;58877;51.992;4.504;2022-09-09T10:15:59;18.65;79.94
71177;DHT22;58877;51.992;4.504;2022-09-09T10:18:42;18.56;80.67
71177;DHT22;58877;51.992;4.504;2022-09-09T10:30:22;19.10;80.02
71177;DHT22;58877;51.992;4.504;2022-09-09T10:33:02;19.38;79.45
71177;DHT22;58877;51.992;4.504;2022-09-09T10:38:26;19.31;78.83
71177;DHT22;58877;51.992;4.504;2022-09-09T10:46:09;18.88;78.72
71177;DHT22;58877;51.992;4.504;2022-09-09T10:51:28;19.22;78.88
71177;DHT22;58877;51.992;4.504;2022-09-09T10:56:26;19.19;78.23
71177;DHT22;58877;51.992;4.504;2022-09-09T10:59:04;19.16;78.47
71177;DHT22;58877;51.992;4.504;2022-09-09T11:01:49;19.26;79.07
71177;DHT22;58877;51.992;4.504;2022-09-09T11:06:55;19.60;79.01
71177;DHT22;58877;51.992;4.504;2022-09-09T11:09:37;19.91;78.22
71177;DHT22;58877;51.992;4.504;2022-09-09T11:12:09;19.82;77.37
71177;DHT22;58877;51.992;4.504;2022-09-09T11:17:42;20.14;75.37
71177;DHT22;58877;51.992;4.504;2022-09-09T11:20:12;20.32;74.31
71177;DHT22;58877;51.992;4.504;2022-09-09T11:25:29;20.36;75.85
71177;DHT22;58877;51.992;4.504;2022-09-09T11:38:53;20.07;76.50
71177;DHT22;58877;51.992;4.504;2022-09-09T11:41:23;19.77;76.72
71177;DHT22;58877;51.992;4.504;2022-09-09T11:43:52;19.67;77.78
71177;DHT22;58877;51.992;4.504;2022-09-09T11:46:31;19.55;77.57
71177;DHT22;58877;51.992;4.504;2022-09-09T11:49:05;19.46;77.98
71177;DHT22;58877;51.992;4.504;2022-09-09T11:51:34;19.22;78.86
71177;DHT22;58877;51.992;4.504;2022-09-09T11:54:30;19.07;79.66
71177;DHT22;58877;51.992;4.504;2022-09-09T11:56:56;18.83;80.09
71177;DHT22;58877;51.992;4.504;2022-09-09T11:59:28;18.68;81.28
71177;DHT22;58877;51.992;4.504;2022-09-09T12:06:52;18.42;83.05
71177;DHT22;58877;51.992;4.504;2022-09-09T12:09:33;18.58;82.76
71177;DHT22;58877;51.992;4.504;2022-09-09T12:14:54;18.93;82.51
71177;DHT22;58877;51.992;4.504;2022-09-09T12:17:25;19.03;81.74
71177;DHT22;58877;51.992;4.504;2022-09-09T12:20:06;19.14;81.67
71177;DHT22;58877;51.992;4.504;2022-09-09T12:25:39;19.04;81.62
71177;DHT22;58877;51.992;4.504;2022-09-09T12:28:15;18.89;81.75
71177;DHT22;58877;51.992;4.504;2022-09-09T12:31:05;18.88;80.85
71177;DHT22;58877;51.992;4.504;2022-09-09T12:33:36;18.95;80.73
71177;DHT22;58877;51.992;4.504;2022-09-09T12:36:04;19.04;79.88
71177;DHT22;58877;51.992;4.504;2022-09-09T12:38:37;19.17;80.08
71177;DHT22;58877;51.992;4.504;2022-09-09T12:41:04;19.09;79.58
71177;DHT22;58877;51.992;4.504;2022-09-09T12:43:30;19.10;79.96
71177;DHT22;58877;51.992;4.504;2022-09-09T12:46:23;19.07;79.85
71177;DHT22;58877;51.992;4.504;2022-09-09T12:48:53;19.14;79.85
71177;DHT22;58877;51.992;4.504;2022-09-09T12:51:25;19.19;79.76
71177;DHT22;58877;51.992;4.504;2022-09-09T12:53:52;19.17;80.23
71177;DHT22;58877;51.992;4.504;2022-09-09T12:56:23;19.17;80.20
71177;DHT22;58877;51.992;4.504;2022-09-09T12:58:53;19.23;80.36
71177;DHT22;58877;51.992;4.504;2022-09-09T13:01:29;19.28;79.58
71177;DHT22;58877;51.992;4.504;2022-09-09T13:03:56;19.33;79.15
71177;DHT22;58877;51.992;4.504;2022-09-09T13:06:28;19.67;79.00
71177;DHT22;58877;51.992;4.504;2022-09-09T13:08:56;19.78;78.46
71177;DHT22;58877;51.992;4.504;2022-09-09T13:11:34;19.92;77.68
71177;DHT22;58877;51.992;4.504;2022-09-09T13:14:02;20.11;76.72
71177;DHT22;58877;51.992;4.504;2022-09-09T13:16:29;20.39;76.55
71177;DHT22;58877;51.992;4.504;2022-09-09T13:21:37;21.06;74.61
71177;DHT22;58877;51.992;4.504;2022-09-09T13:24:57;21.17;74.31
71177;DHT22;58877;51.992;4.504;2022-09-09T13:27:01;20.99;74.31
71177;DHT22;58877;51.992;4.504;2022-09-09T13:29:28;20.72;74.49
71177;DHT22;58877;51.992;4.504;2022-09-09T13:32:04;20.57;74.63
71177;DHT22;58877;51.992;4.504;2022-09-09T13:34:33;20.39;75.81
71177;DHT22;58877;51.992;4.504;2022-09-09T13:37:02;20.21;75.85
71177;DHT22;58877;51.992;4.504;2022-09-09T13:39:29;20.26;77.15
71177;DHT22;58877;51.992;4.504;2022-09-09T13:41:54;20.18;76.16
71177;DHT22;58877;51.992;4.504;2022-09-09T13:44:36;19.89;76.93
71177;DHT22;58877;51.992;4.504;2022-09-09T13:47:04;19.73;78.05
71177;DHT22;58877;51.992;4.504;2022-09-09T13:49:30;19.51;79.40
71177;DHT22;58877;51.992;4.504;2022-09-09T13:52:13;19.22;80.53
71177;DHT22;58877;51.992;4.504;2022-09-09T13:54:40;19.02;81.35
71177;DHT22;58877;51.992;4.504;2022-09-09T13:57:15;18.95;82.15
71177;DHT22;58877;51.992;4.504;2022-09-09T13:59:40;18.90;82.34
71177;DHT22;58877;51.992;4.504;2022-09-09T14:02:07;18.99;82.20
71177;DHT22;58877;51.992;4.504;2022-09-09T14:04:32;18.89;81.93
71177;DHT22;58877;51.992;4.504;2022-09-09T14:07:01;18.92;82.10
71177;DHT22;58877;51.992;4.504;2022-09-09T14:09:27;18.93;81.76
71177;DHT22;58877;51.992;4.504;2022-09-09T14:11:52;18.99;81.82
71177;DHT22;58877;51.992;4.504;2022-09-09T14:14:18;19.06;81.32
71177;DHT22;58877;51.992;4.504;2022-09-09T14:16:43;19.14;81.32
71177;DHT22;58877;51.992;4.504;2022-09-09T14:19:09;19.19;81.35
71177;DHT22;58877;51.992;4.504;2022-09-09T14:21:35;19.22;80.82
71177;DHT22;58877;51.992;4.504;2022-09-09T14:24:01;19.49;80.33
71177;DHT22;58877;51.992;4.504;2022-09-09T14:26:26;19.67;79.69
71177;DHT22;58877;51.992;4.504;2022-09-09T14:28:54;19.77;78.77
71177;DHT22;58877;51.992;4.504;2022-09-09T14:31:19;19.85;77.89
71177;DHT22;58877;51.992;4.504;2022-09-09T14:33:46;20.07;78.12
71177;DHT22;58877;51.992;4.504;2022-09-09T14:36:12;20.24;77.83
71177;DHT22;58877;51.992;4.504;2022-09-09T14:38:38;20.79;78.12
71177;DHT22;58877;51.992;4.504;2022-09-09T14:41:06;21.30;75.73
71177;DHT22;58877;51.992;4.504;2022-09-09T14:43:32;21.37;74.15
71177;DHT22;58877;51.992;4.504;2022-09-09T14:46:07;21.81;73.18
71177;DHT22;58877;51.992;4.504;2022-09-09T14:48:34;22.70;71.53
71177;DHT22;58877;51.992;4.504;2022-09-09T14:51:18;23.04;65.63
71177;DHT22;58877;51.992;4.504;2022-09-09T14:53:50;22.26;68.17
71177;DHT22;58877;51.992;4.504;2022-09-09T14:56:18;22.42;68.34
71177;DHT22;58877;51.992;4.504;2022-09-09T14:58:45;23.34;64.66
71177;DHT22;58877;51.992;4.504;2022-09-09T15:01:14;23.89;63.12
71177;DHT22;58877;51.992;4.504;2022-09-09T15:03:41;24.67;61.24
71177;DHT22;58877;51.992;4.504;2022-09-09T15:06:11;24.82;59.33
71177;DHT22;58877;51.992;4.504;2022-09-09T15:08:39;24.63;60.46
71177;DHT22;58877;51.992;4.504;2022-09-09T15:11:06;25.04;58.99
71177;DHT22;58877;51.992;4.504;2022-09-09T15:13:35;24.64;59.17
71177;DHT22;58877;51.992;4.504;2022-09-09T15:16:07;24.09;60.08
71177;DHT22;58877;51.992;4.504;2022-09-09T15:18:33;25.08;61.34
71177;DHT22;58877;51.992;4.504;2022-09-09T15:20:59;24.30;60.67
71177;DHT22;58877;51.992;4.504;2022-09-09T15:23:33;24.55;59.47
71177;DHT22;58877;51.992;4.504;2022-09-09T15:26:09;23.59;62.07
71177;DHT22;58877;51.992;4.504;2022-09-09T15:28:36;22.45;65.72
71177;DHT22;58877;51.992;4.504;2022-09-09T15:31:13;21.53;69.13
71177;DHT22;58877;51.992;4.504;2022-09-09T15:33:40;21.00;70.19
71177;DHT22;58877;51.992;4.504;2022-09-09T15:36:25;20.79;70.80
71177;DHT22;58877;51.992;4.504;2022-09-09T15:38:52;20.62;72.11
71177;DHT22;58877;51.992;4.504;2022-09-09T15:41:19;20.40;72.26
71177;DHT22;58877;51.992;4.504;2022-09-09T15:43:51;20.26;72.87
71177;DHT22;58877;51.992;4.504;2022-09-09T15:46:31;20.09;73.76
71177;DHT22;58877;51.992;4.504;2022-09-09T15:49:27;20.15;74.82
71177;DHT22;58877;51.992;4.504;2022-09-09T15:51:55;20.26;75.20
71177;DHT22;58877;51.992;4.504;2022-09-09T15:54:24;20.24;75.21
71177;DHT22;58877;51.992;4.504;2022-09-09T15:56:53;20.12;76.06
71177;DHT22;58877;51.992;4.504;2022-09-09T15:59:21;20.18;75.63
71177;DHT22;58877;51.992;4.504;2022-09-09T16:01:47;20.11;75.97
71177;DHT22;58877;51.992;4.504;2022-09-09T16:04:12;20.08;76.73
71177;DHT22;58877;51.992;4.504;2022-09-09T16:06:38;19.67;78.25
71177;DHT22;58877;51.992;4.504;2022-09-09T16:09:05;19.58;79.60
71177;DHT22;58877;51.992;4.504;2022-09-09T16:11:34;19.67;79.81
71177;DHT22;58877;51.992;4.504;2022-09-09T16:14:01;19.79;79.67
71177;DHT22;58877;51.992;4.504;2022-09-09T16:16:28;19.70;79.45
71177;DHT22;58877;51.992;4.504;2022-09-09T16:18:57;19.61;78.55
71177;DHT22;58877;51.992;4.504;2022-09-09T16:21:26;19.46;78.68
71177;DHT22;58877;51.992;4.504;2022-09-09T16:23:55;19.43;79.34
71177;DHT22;58877;51.992;4.504;2022-09-09T16:26:22;19.49;79.51
71177;DHT22;58877;51.992;4.504;2022-09-09T16:28:48;19.53;78.46
71177;DHT22;58877;51.992;4.504;2022-09-09T16:31:19;19.43;78.73
71177;DHT22;58877;51.992;4.504;2022-09-09T16:33:45;19.24;79.42
71177;DHT22;58877;51.992;4.504;2022-09-09T16:36:28;19.60;78.99
71177;DHT22;58877;51.992;4.504;2022-09-09T16:38:58;19.37;78.96
71177;DHT22;58877;51.992;4.504;2022-09-09T16:41:25;19.71;79.14
71177;DHT22;58877;51.992;4.504;2022-09-09T16:43:54;19.97;77.31
71177;DHT22;58877;51.992;4.504;2022-09-09T16:46:21;19.81;75.33
71177;DHT22;58877;51.992;4.504;2022-09-09T16:48:47;19.75;75.71
71177;DHT22;58877;51.992;4.504;2022-09-09T16:51:22;19.74;75.87
71177;DHT22;58877;51.992;4.504;2022-09-09T16:53:49;19.63;75.74
71177;DHT22;58877;51.992;4.504;2022-09-09T16:56:19;19.64;75.24
71177;DHT22;58877;51.992;4.504;2022-09-09T16:58:50;19.50;76.24
71177;DHT22;58877;51.992;4.504;2022-09-09T17:01:16;19.37;77.02
71177;DHT22;58877;51.992;4.504;2022-09-09T17:03:42;19.12;77.67
71177;DHT22;58877;51.992;4.504;2022-09-09T17:06:15;18.99;78.37
71177;DHT22;58877;51.992;4.504;2022-09-09T17:08:41;18.98;78.40
71177;DHT22;58877;51.992;4.504;2022-09-09T17:11:18;18.99;78.93
71177;DHT22;58877;51.992;4.504;2022-09-09T17:13:46;19.06;78.91
71177;DHT22;58877;51.992;4.504;2022-09-09T17:16:13;19.04;79.07
71177;DHT22;58877;51.992;4.504;2022-09-09T17:18:40;19.04;78.75
71177;DHT22;58877;51.992;4.504;2022-09-09T17:21:12;19.03;78.83
71177;DHT22;58877;51.992;4.504;2022-09-09T17:23:40;19.10;79.25
71177;DHT22;58877;51.992;4.504;2022-09-09T17:26:08;19.19;78.92
71177;DHT22;58877;51.992;4.504;2022-09-09T17:28:39;19.00;78.63
71177;DHT22;58877;51.992;4.504;2022-09-09T17:31:10;18.86;79.18
71177;DHT22;58877;51.992;4.504;2022-09-09T17:33:39;18.77;80.07
71177;DHT22;58877;51.992;4.504;2022-09-09T17:36:13;18.55;80.71
71177;DHT22;58877;51.992;4.504;2022-09-09T17:38:40;18.52;81.50
71177;DHT22;58877;51.992;4.504;2022-09-09T17:41:09;18.49;82.16
71177;DHT22;58877;51.992;4.504;2022-09-09T17:43:36;18.45;81.72
71177;DHT22;58877;51.992;4.504;2022-09-09T17:46:21;18.21;82.14
71177;DHT22;58877;51.992;4.504;2022-09-09T17:48:48;18.15;82.66
71177;DHT22;58877;51.992;4.504;2022-09-09T17:51:20;18.14;82.72
71177;DHT22;58877;51.992;4.504;2022-09-09T17:53:52;18.11;82.18
71177;DHT22;58877;51.992;4.504;2022-09-09T17:56:22;18.18;81.83